Time;durP1;ratioP1;P1;durP2;ratioP2;P2;SDS_P1;SDS_P2;PMS_P1;PMS_P2;Temp;Humidity;BMP_temperature;BMP_pressure;BME280_temperature;BME280_humidity;BME280_pressure;Samples;Min_cycle;Max_cycle;Signal;HPM_P1;HPM_P2
2023/11/03 00:04:29;;;;;;;1.77;0.50;;;16.20;77.80;;;;;;10412002;28;20025;-58
2023/11/03 00:09:36;;;;;;;0.40;0.20;;;16.20;78.40;;;;;;10411153;28;20029;-58
2023/11/03 00:14:37;;;;;;;1.20;0.35;;;16.20;77.70;;;;;;10411536;28;20036;-58
2023/11/03 00:19:38;;;;;;;1.73;0.85;;;16.20;77.80;;;;;;10411203;28;20652;-58
2023/11/03 00:24:40;;;;;;;0.95;0.20;;;16.20;77.80;;;;;;10411195;28;20033;-59
2023/11/03 00:29:41;;;;;;;0.82;0.30;;;16.20;77.80;;;;;;10421980;28;20408;-59
2023/11/03 00:34:42;;;;;;;0.40;0.20;;;16.20;77.80;;;;;;10411967;28;20037;-58
2023/11/03 00:39:42;;;;;;;0.52;0.30;;;16.20;77.80;;;;;;10410042;28;20033;-58
2023/11/03 00:44:43;;;;;;;1.60;0.20;;;16.20;77.90;;;;;;10410271;28;20033;-58
2023/11/03 00:49:44;;;;;;;0.60;0.22;;;16.20;77.80;;;;;;10409991;28;20035;-58
2023/11/03 00:54:45;;;;;;;0.63;0.38;;;16.20;77.90;;;;;;10410010;28;20037;-58
2023/11/03 00:59:45;;;;;;;0.88;0.28;;;16.20;77.80;;;;;;10409335;28;20080;-59
2023/11/03 01:04:46;;;;;;;1.75;0.50;;;16.10;77.70;;;;;;10409452;28;20030;-58
2023/11/03 01:09:47;;;;;;;0.77;0.30;;;16.10;77.70;;;;;;10409481;28;20021;-58
2023/11/03 01:14:50;;;;;;;0.63;0.35;;;16.10;77.70;;;;;;10408801;28;20045;-58
2023/11/03 01:19:51;;;;;;;0.50;0.20;;;16.10;77.70;;;;;;10409136;28;20091;-58
2023/11/03 01:24:52;;;;;;;0.70;0.30;;;16.10;77.70;;;;;;10408782;28;20543;-58
2023/11/03 01:29:53;;;;;;;0.50;0.17;;;16.10;77.70;;;;;;10409479;28;20048;-58
2023/11/03 01:34:54;;;;;;;0.82;0.40;;;16.10;77.70;;;;;;10408296;28;20032;-58
2023/11/03 01:39:56;;;;;;;0.52;0.30;;;16.10;77.70;;;;;;10408821;28;20041;-58
2023/11/03 01:44:57;;;;;;;0.57;0.20;;;16.10;77.70;;;;;;10408697;28;20899;-58
2023/11/03 01:49:59;;;;;;;1.45;0.30;;;16.10;77.70;;;;;;10408494;28;20029;-58
2023/11/03 01:55:00;;;;;;;0.77;0.20;;;16.10;77.70;;;;;;10408562;28;20057;-58
2023/11/03 02:00:03;;;;;;;0.82;0.40;;;16.00;77.70;;;;;;10408329;28;20657;-59
2023/11/03 02:05:04;;;;;;;1.92;0.30;;;16.00;77.70;;;;;;10406927;28;20116;-58
2023/11/03 02:10:07;;;;;;;1.20;0.30;;;16.00;77.70;;;;;;10408456;28;20022;-58
2023/11/03 02:15:08;;;;;;;0.40;0.20;;;16.00;77.70;;;;;;10409593;28;20028;-58
2023/11/03 02:20:10;;;;;;;1.17;0.40;;;16.10;77.70;;;;;;10416415;28;20029;-58
2023/11/03 02:25:11;;;;;;;0.40;0.20;;;16.00;77.60;;;;;;10415716;28;20032;-58
2023/11/03 02:30:12;;;;;;;0.75;0.30;;;16.00;77.60;;;;;;10427623;28;20497;-58
2023/11/03 02:35:12;;;;;;;1.00;0.45;;;16.00;77.70;;;;;;10415172;28;20053;-58
2023/11/03 02:40:14;;;;;;;1.05;0.30;;;16.00;77.70;;;;;;10415014;28;20369;-57
2023/11/03 02:45:15;;;;;;;1.00;0.20;;;16.00;77.60;;;;;;10414744;28;20026;-58
2023/11/03 02:50:15;;;;;;;0.82;0.32;;;16.00;77.60;;;;;;10413337;28;20492;-58
2023/11/03 02:55:16;;;;;;;1.88;0.57;;;16.00;77.60;;;;;;10414497;28;20645;-58
2023/11/03 03:00:17;;;;;;;0.65;0.20;;;16.00;77.60;;;;;;10412985;28;20037;-58
2023/11/03 03:05:18;;;;;;;0.88;0.20;;;15.90;77.50;;;;;;10413897;28;20030;-58
2023/11/03 03:10:18;;;;;;;1.13;0.70;;;16.00;77.70;;;;;;10413867;28;20021;-59
2023/11/03 03:15:19;;;;;;;0.63;0.30;;;15.90;77.60;;;;;;10413514;28;20083;-58
2023/11/03 03:20:20;;;;;;;0.63;0.22;;;16.00;77.60;;;;;;10413885;28;20139;-59
2023/11/03 03:25:21;;;;;;;1.05;0.20;;;15.90;77.60;;;;;;10412697;28;20028;-58
2023/11/03 03:30:22;;;;;;;1.77;0.20;;;15.90;77.60;;;;;;10426245;28;20041;-58
2023/11/03 03:35:22;;;;;;;0.60;0.20;;;15.90;77.60;;;;;;10413112;28;20022;-58
2023/11/03 03:40:23;;;;;;;1.55;0.50;;;15.90;77.70;;;;;;10412676;28;20039;-58
2023/11/03 03:45:24;;;;;;;0.52;0.20;;;15.90;77.60;;;;;;10412440;28;20029;-58
2023/11/03 03:50:24;;;;;;;0.75;0.28;;;15.90;77.60;;;;;;10411344;28;20031;-58
2023/11/03 03:55:25;;;;;;;1.30;0.32;;;15.90;77.60;;;;;;10411972;28;20089;-58
2023/11/03 04:00:26;;;;;;;0.55;0.35;;;15.90;77.60;;;;;;10412164;28;20036;-58
2023/11/03 04:05:26;;;;;;;0.98;0.30;;;15.90;77.60;;;;;;10411335;28;20028;-58
2023/11/03 04:10:27;;;;;;;0.90;0.30;;;15.90;77.50;;;;;;10411504;28;20436;-58
2023/11/03 04:15:28;;;;;;;0.75;0.30;;;15.90;77.60;;;;;;10411428;28;20183;-58
2023/11/03 04:20:28;;;;;;;1.30;0.40;;;15.90;77.50;;;;;;10411209;28;20083;-58
2023/11/03 04:25:29;;;;;;;0.85;0.25;;;15.90;77.50;;;;;;10410876;28;20037;-58
2023/11/03 04:30:34;;;;;;;0.70;0.30;;;15.90;77.60;;;;;;10423623;28;20038;-58
2023/11/03 04:35:35;;;;;;;1.88;0.30;;;15.80;77.50;;;;;;10412731;28;20029;-58
2023/11/03 04:40:36;;;;;;;1.73;0.30;;;15.80;77.50;;;;;;10425983;28;20037;-58
2023/11/03 04:45:37;;;;;;;0.25;0.20;;;15.80;77.50;;;;;;10425304;28;20049;-56
2023/11/03 04:50:38;;;;;;;0.98;0.47;;;15.90;77.70;;;;;;10426221;28;20068;-57
2023/11/03 04:55:39;;;;;;;0.20;0.20;;;15.80;77.60;;;;;;10423998;28;20064;-58
2023/11/03 05:00:39;;;;;;;0.55;0.32;;;15.80;77.60;;;;;;10424585;28;20447;-58
2023/11/03 05:05:42;;;;;;;0.77;0.43;;;15.80;77.50;;;;;;10423292;28;20013;-58
2023/11/03 05:10:42;;;;;;;1.02;0.30;;;15.80;77.60;;;;;;10423101;28;20026;-58
2023/11/03 05:15:43;;;;;;;2.05;0.35;;;15.80;77.50;;;;;;10415372;28;20052;-58
2023/11/03 05:20:44;;;;;;;0.98;0.85;;;15.80;77.60;;;;;;10425608;28;20025;-59
2023/11/03 05:25:45;;;;;;;0.50;0.30;;;15.80;77.60;;;;;;10425509;28;20021;-58
2023/11/03 05:30:45;;;;;;;0.95;0.40;;;15.80;77.60;;;;;;10425229;28;20483;-57
2023/11/03 05:35:47;;;;;;;1.13;0.40;;;15.80;77.60;;;;;;10423410;28;20041;-58
2023/11/03 05:40:48;;;;;;;0.60;0.20;;;15.80;77.60;;;;;;10412112;28;20369;-57
2023/11/03 05:45:49;;;;;;;1.33;0.30;;;15.90;77.80;;;;;;10404662;28;20056;-58
2023/11/03 05:50:50;;;;;;;1.55;0.22;;;16.00;77.40;;;;;;10411913;28;20044;-58
2023/11/03 05:55:51;;;;;;;1.63;0.20;;;16.20;76.90;;;;;;10416751;28;20029;-59
2023/11/03 06:00:52;;;;;;;1.02;0.40;;;16.40;76.30;;;;;;10417367;28;20396;-61
2023/11/03 06:05:53;;;;;;;2.95;0.68;;;16.50;75.70;;;;;;10413320;28;20025;-58
2023/11/03 06:10:54;;;;;;;8.27;1.00;;;16.70;75.20;;;;;;10413375;28;20029;-58
2023/11/03 06:15:55;;;;;;;6.35;0.90;;;16.90;75.20;;;;;;10412608;28;20036;-60
2023/11/03 06:20:55;;;;;;;4.57;1.00;;;17.10;74.80;;;;;;10412009;28;20029;-58
2023/11/03 06:25:56;;;;;;;8.15;1.13;;;17.20;75.20;;;;;;10412382;28;20102;-58
2023/11/03 06:30:57;;;;;;;6.97;1.00;;;17.30;74.80;;;;;;10425219;28;20057;-57
2023/11/03 06:35:59;;;;;;;9.48;1.10;;;17.40;74.60;;;;;;10408357;28;20554;-58
2023/11/03 06:40:59;;;;;;;10.68;1.67;;;17.40;74.40;;;;;;10409611;28;20030;-58
2023/11/03 06:46:00;;;;;;;10.00;1.45;;;17.50;73.90;;;;;;10412821;28;20014;-58
2023/11/03 06:51:01;;;;;;;25.58;3.33;;;17.50;73.90;;;;;;10420706;28;20033;-58
2023/11/03 06:56:02;;;;;;;15.57;1.88;;;17.40;74.70;;;;;;10420524;28;20016;-57
2023/11/03 07:01:04;;;;;;;14.95;4.00;;;17.70;74.00;;;;;;10430618;28;20030;-57
2023/11/03 07:06:05;;;;;;;13.45;2.38;;;17.90;72.90;;;;;;10423726;28;20025;-59
2023/11/03 07:11:06;;;;;;;18.90;2.78;;;17.90;72.80;;;;;;10411884;28;20029;-62
2023/11/03 07:16:07;;;;;;;21.88;2.65;;;18.00;72.10;;;;;;10412716;28;20044;-62
2023/11/03 07:21:11;;;;;;;18.63;5.13;;;18.00;71.90;;;;;;10411637;28;20416;-61
2023/11/03 07:26:13;;;;;;;15.73;3.15;;;17.90;72.20;;;;;;10411699;28;20104;-62
2023/11/03 07:31:13;;;;;;;14.07;2.72;;;17.80;72.40;;;;;;10413102;28;20057;-58
2023/11/03 07:36:14;;;;;;;16.17;3.83;;;17.60;72.90;;;;;;10403666;28;20045;-58
2023/11/03 07:41:15;;;;;;;12.68;2.47;;;17.60;73.00;;;;;;10417126;28;20488;-58
2023/11/03 07:46:16;;;;;;;11.15;1.75;;;17.60;73.00;;;;;;10423016;28;20028;-58
2023/11/03 07:51:16;;;;;;;16.00;2.47;;;17.60;73.10;;;;;;10412077;28;20033;-58
2023/11/03 07:56:17;;;;;;;10.90;2.22;;;17.50;73.20;;;;;;10408340;28;20494;-58
2023/11/03 08:01:19;;;;;;;16.83;4.90;;;17.60;73.10;;;;;;10411232;28;20047;-58
2023/11/03 08:06:20;;;;;;;10.77;2.38;;;17.60;73.10;;;;;;10414757;28;20029;-58
2023/11/03 08:11:21;;;;;;;14.30;2.08;;;17.50;73.20;;;;;;10410573;28;20069;-58
2023/11/03 08:16:22;;;;;;;8.77;1.83;;;17.50;73.30;;;;;;10414351;28;20120;-58
2023/11/03 08:21:24;;;;;;;9.05;2.58;;;17.50;73.20;;;;;;10443672;28;20412;-57
2023/11/03 08:26:24;;;;;;;8.70;2.75;;;17.60;73.10;;;;;;10410613;28;20043;-58
2023/11/03 08:31:25;;;;;;;9.65;1.95;;;17.60;73.20;;;;;;10410981;28;20380;-58
2023/11/03 08:36:26;;;;;;;6.65;1.48;;;17.60;73.10;;;;;;10410144;28;20519;-56
2023/11/03 08:41:26;;;;;;;14.23;2.22;;;17.60;73.10;;;;;;10409837;28;20488;-58
2023/11/03 08:46:27;;;;;;;5.20;1.55;;;17.60;73.20;;;;;;10414867;28;20026;-58
2023/11/03 08:51:28;;;;;;;14.20;1.70;;;17.50;73.50;;;;;;10414512;28;20026;-57
2023/11/03 08:56:29;;;;;;;9.30;1.77;;;17.50;73.80;;;;;;10409174;28;20037;-57
2023/11/03 09:01:30;;;;;;;11.73;2.10;;;17.40;73.80;;;;;;10419043;28;20090;-56
2023/11/03 09:06:30;;;;;;;7.43;1.25;;;17.40;74.00;;;;;;10425025;28;20064;-58
2023/11/03 09:11:32;;;;;;;4.00;1.17;;;17.30;74.20;;;;;;10421689;28;20083;-57
2023/11/03 09:16:33;;;;;;;8.32;1.50;;;17.40;74.20;;;;;;10407055;28;20491;-57
2023/11/03 09:21:35;;;;;;;8.50;2.72;;;17.30;74.20;;;;;;10408712;28;20036;-58
2023/11/03 09:26:35;;;;;;;5.78;1.30;;;17.30;74.20;;;;;;10419319;28;20036;-59
2023/11/03 09:31:36;;;;;;;12.85;2.63;;;17.30;74.30;;;;;;10422804;28;20056;-58
2023/11/03 09:36:38;;;;;;;5.75;1.52;;;17.20;74.30;;;;;;10418347;28;20094;-58
2023/11/03 09:41:58;;;;;;;11.63;2.40;;;17.30;74.10;;;;;;10407166;28;20025;-58
2023/11/03 09:47:01;;;;;;;8.52;1.35;;;17.20;74.00;;;;;;10407955;28;20025;-58
2023/11/03 09:52:09;;;;;;;9.98;2.03;;;17.20;74.20;;;;;;10406856;28;20029;-57
2023/11/03 09:57:11;;;;;;;7.28;1.88;;;17.20;74.30;;;;;;10406521;28;20025;-57
2023/11/03 10:02:20;;;;;;;5.68;1.42;;;17.20;74.10;;;;;;10404009;28;20033;-57
2023/11/03 10:07:21;;;;;;;3.23;1.30;;;17.30;74.00;;;;;;10407517;28;20034;-58
2023/11/03 10:12:22;;;;;;;4.78;1.30;;;17.20;74.20;;;;;;10403644;28;20034;-58
2023/11/03 10:17:24;;;;;;;4.30;1.40;;;17.20;74.90;;;;;;10406136;28;20467;-58
2023/11/03 10:22:26;;;;;;;5.45;1.48;;;17.10;75.10;;;;;;10405599;28;20056;-58
2023/11/03 10:27:26;;;;;;;7.55;1.63;;;16.90;75.90;;;;;;10405144;28;20512;-58
2023/11/03 10:32:27;;;;;;;10.60;1.42;;;16.90;76.20;;;;;;10406318;28;20064;-58
2023/11/03 10:37:31;;;;;;;5.38;1.45;;;16.80;76.60;;;;;;10410162;28;20031;-58
2023/11/03 10:42:38;;;;;;;9.13;1.60;;;16.80;76.80;;;;;;10413824;28;20068;-58
2023/11/03 10:47:54;;;;;;;4.80;1.50;;;16.80;77.00;;;;;;10412481;28;20502;-58
2023/11/03 10:53:19;;;;;;;4.30;1.60;;;16.80;77.10;;;;;;10413152;28;20414;-58
2023/11/03 10:58:19;;;;;;;5.72;1.42;;;16.80;76.90;;;;;;10412409;28;20037;-57
2023/11/03 11:03:43;;;;;;;9.65;2.03;;;16.80;77.10;;;;;;10450126;28;20051;-57
2023/11/03 11:08:46;;;;;;;11.50;1.92;;;16.80;77.30;;;;;;10412412;28;20117;-58
2023/11/03 11:13:46;;;;;;;11.02;2.30;;;16.80;77.60;;;;;;10393369;28;20469;-55
2023/11/03 11:18:55;;;;;;;16.17;3.00;;;16.80;76.70;;;;;;10411661;28;20029;-57
2023/11/03 11:23:56;;;;;;;5.45;1.88;;;17.00;76.80;;;;;;10411684;28;20091;-58
2023/11/03 11:28:59;;;;;;;9.23;1.98;;;16.80;77.00;;;;;;10415905;28;20434;-58
2023/11/03 11:34:14;;;;;;;7.32;2.28;;;16.70;76.80;;;;;;10420375;28;20043;-57
2023/11/03 11:39:17;;;;;;;8.82;2.15;;;16.70;77.00;;;;;;10411246;28;20053;-58
2023/11/03 11:44:29;;;;;;;5.70;1.38;;;16.70;77.00;;;;;;10411352;28;20420;-56
2023/11/03 11:49:31;;;;;;;7.22;1.98;;;16.80;77.10;;;;;;10410979;28;20032;-57
2023/11/03 11:54:31;;;;;;;4.10;1.50;;;16.80;76.80;;;;;;10409582;28;20029;-57
2023/11/03 11:59:32;;;;;;;8.00;1.40;;;16.80;77.00;;;;;;10409506;28;20044;-57
2023/11/03 12:04:33;;;;;;;8.05;1.25;;;16.80;76.80;;;;;;10409581;28;20618;-57
2023/11/03 12:09:37;;;;;;;7.32;1.50;;;16.80;76.90;;;;;;10408484;28;20556;-57
2023/11/03 12:14:38;;;;;;;6.13;1.80;;;17.00;76.80;;;;;;10409545;28;20037;-56
2023/11/03 12:19:40;;;;;;;9.00;1.63;;;17.00;76.60;;;;;;10408131;28;20107;-57
2023/11/03 12:24:41;;;;;;;3.47;1.10;;;17.00;76.70;;;;;;10409033;28;20485;-56
2023/11/03 12:29:41;;;;;;;4.53;1.33;;;17.00;76.80;;;;;;10408117;28;20046;-56
2023/11/03 12:34:43;;;;;;;2.80;1.30;;;16.90;77.20;;;;;;10408947;28;20041;-57
2023/11/03 12:39:52;;;;;;;6.03;1.65;;;16.90;77.40;;;;;;10408882;28;20033;-57
2023/11/03 12:45:00;;;;;;;2.80;1.00;;;16.90;77.60;;;;;;10408133;28;20448;-57
2023/11/03 12:50:11;;;;;;;5.63;2.38;;;16.90;77.40;;;;;;10407192;28;20496;-55
2023/11/03 12:55:11;;;;;;;2.35;1.00;;;16.90;77.50;;;;;;10407583;28;20040;-56
2023/11/03 13:00:15;;;;;;;3.97;1.40;;;16.80;77.60;;;;;;10408759;28;20484;-57
2023/11/03 13:05:16;;;;;;;5.95;1.15;;;16.80;77.60;;;;;;10406942;28;20037;-58
2023/11/03 13:10:18;;;;;;;7.93;1.40;;;16.80;77.50;;;;;;10407000;28;20370;-57
2023/11/03 13:15:19;;;;;;;3.70;1.13;;;16.80;77.50;;;;;;10405049;28;20075;-57
2023/11/03 13:20:20;;;;;;;4.00;1.90;;;16.80;77.50;;;;;;10407795;28;20032;-55
2023/11/03 13:25:21;;;;;;;9.15;2.55;;;16.80;77.50;;;;;;10407313;28;20079;-57
2023/11/03 13:30:22;;;;;;;10.32;2.50;;;16.80;77.50;;;;;;10408566;28;20076;-58
2023/11/03 13:35:26;;;;;;;7.60;1.40;;;16.90;77.00;;;;;;10405944;28;20498;-58
2023/11/03 13:40:28;;;;;;;4.97;1.50;;;16.80;77.20;;;;;;10404887;28;20061;-60
2023/11/03 13:45:28;;;;;;;6.10;1.20;;;16.80;77.30;;;;;;10406519;28;20026;-60
2023/11/03 13:50:29;;;;;;;5.30;1.60;;;16.70;77.60;;;;;;10407993;28;20030;-58
2023/11/03 13:55:30;;;;;;;6.97;1.40;;;16.80;77.70;;;;;;10406539;28;20419;-60
2023/11/03 14:00:31;;;;;;;4.38;1.60;;;16.90;77.70;;;;;;10408184;28;20041;-59
2023/11/03 14:05:33;;;;;;;8.43;1.45;;;16.90;77.50;;;;;;10406223;28;20481;-60
2023/11/03 14:10:34;;;;;;;6.57;1.65;;;16.90;77.40;;;;;;10410696;28;20013;-60
2023/11/03 14:15:36;;;;;;;12.45;2.35;;;16.90;77.70;;;;;;10413946;28;20366;-58
2023/11/03 14:20:38;;;;;;;16.50;3.78;;;16.80;77.80;;;;;;10411444;28;20044;-60
2023/11/03 14:25:39;;;;;;;20.77;4.40;;;16.70;78.00;;;;;;10411485;28;20080;-60
2023/11/03 14:30:40;;;;;;;15.25;3.17;;;16.70;78.00;;;;;;10413437;28;20054;-60
2023/11/03 14:35:41;;;;;;;10.23;1.83;;;16.70;78.10;;;;;;10414448;28;20032;-60
2023/11/03 14:40:42;;;;;;;10.45;2.63;;;16.60;78.00;;;;;;10414076;28;20136;-60
2023/11/03 14:45:44;;;;;;;12.48;2.45;;;16.60;78.20;;;;;;10413959;28;20703;-60
2023/11/03 14:50:44;;;;;;;12.20;3.03;;;16.60;78.20;;;;;;10412724;28;20025;-61
2023/11/03 14:55:45;;;;;;;7.57;1.55;;;16.60;78.10;;;;;;10413087;28;20688;-59
2023/11/03 15:00:47;;;;;;;5.00;1.60;;;16.60;77.20;;;;;;10411314;28;20712;-59
2023/11/03 15:05:48;;;;;;;6.05;1.73;;;16.60;76.90;;;;;;10412457;28;20021;-59
2023/11/03 15:10:49;;;;;;;12.77;1.92;;;16.70;76.50;;;;;;10412514;28;20033;-60
2023/11/03 15:15:52;;;;;;;8.88;2.05;;;16.70;76.50;;;;;;10401293;28;20527;-60
2023/11/03 15:20:53;;;;;;;27.08;3.60;;;16.80;76.40;;;;;;10412763;28;20354;-57
2023/11/03 15:25:55;;;;;;;7.82;1.40;;;16.90;76.40;;;;;;10410463;28;20025;-58
2023/11/03 15:30:56;;;;;;;14.48;2.00;;;17.00;75.50;;;;;;10412152;28;20060;-58
2023/11/03 15:35:58;;;;;;;7.80;1.55;;;17.20;75.20;;;;;;10411415;28;20036;-57
2023/11/03 15:40:59;;;;;;;11.35;2.47;;;17.30;75.20;;;;;;10417845;28;20381;-59
2023/11/03 15:46:03;;;;;;;19.02;2.38;;;17.20;75.20;;;;;;10411863;28;20788;-59
2023/11/03 15:51:05;;;;;;;12.38;2.47;;;17.00;76.80;;;;;;10423471;28;20027;-58
2023/11/03 15:56:09;;;;;;;7.85;2.33;;;16.90;77.40;;;;;;10422028;28;20033;-58
2023/11/03 16:01:10;;;;;;;18.70;2.67;;;16.80;78.00;;;;;;10424584;28;20096;-58
2023/11/03 16:06:12;;;;;;;30.70;4.72;;;16.90;78.10;;;;;;10421116;28;20045;-59
2023/11/03 16:11:15;;;;;;;28.67;3.85;;;16.80;78.50;;;;;;10410960;28;20060;-59
2023/11/03 16:16:15;;;;;;;28.98;4.57;;;16.80;78.50;;;;;;10411564;28;20029;-58
2023/11/03 16:21:16;;;;;;;38.05;5.80;;;16.80;78.70;;;;;;10409751;28;20041;-56
2023/11/03 16:26:17;;;;;;;20.48;3.40;;;16.80;78.90;;;;;;10412389;28;20036;-60
2023/11/03 16:31:18;;;;;;;26.73;9.05;;;16.80;77.80;;;;;;10426387;28;20079;-61
2023/11/03 16:36:19;;;;;;;23.02;7.72;;;16.90;77.40;;;;;;10407783;28;20112;-59
2023/11/03 16:41:20;;;;;;;23.00;4.40;;;16.90;77.20;;;;;;10406183;28;20036;-61
2023/11/03 16:46:23;;;;;;;25.13;7.32;;;17.00;76.10;;;;;;10434408;28;20030;-61
2023/11/03 16:51:27;;;;;;;32.72;7.72;;;17.10;75.00;;;;;;10408808;28;20025;-60
2023/11/03 16:56:27;;;;;;;28.70;7.25;;;17.20;74.90;;;;;;10409907;28;20029;-60
2023/11/03 17:01:30;;;;;;;27.42;6.45;;;17.30;76.30;;;;;;10409981;28;20388;-58
2023/11/03 17:06:31;;;;;;;19.35;5.20;;;17.50;75.80;;;;;;10409375;28;20025;-59
2023/11/03 17:11:32;;;;;;;19.77;6.10;;;17.50;75.70;;;;;;10441385;28;20037;-59
2023/11/03 17:16:32;;;;;;;19.65;5.80;;;17.50;76.20;;;;;;10408331;28;20025;-59
2023/11/03 17:21:33;;;;;;;24.85;6.07;;;17.40;76.00;;;;;;10406203;28;20465;-59
2023/11/03 17:26:34;;;;;;;26.25;5.47;;;17.30;76.10;;;;;;10405925;28;20030;-59
2023/11/03 17:31:37;;;;;;;26.92;5.47;;;17.30;76.60;;;;;;10418630;28;20520;-59
2023/11/03 17:36:37;;;;;;;26.85;5.38;;;17.30;76.90;;;;;;10405620;28;20037;-59
2023/11/03 17:41:38;;;;;;;24.10;6.57;;;17.30;77.10;;;;;;10406378;28;20026;-59
2023/11/03 17:46:39;;;;;;;17.15;4.35;;;17.30;77.20;;;;;;10413611;28;20029;-59
2023/11/03 17:51:41;;;;;;;15.45;4.35;;;17.30;77.30;;;;;;10418060;28;20033;-59
2023/11/03 17:56:41;;;;;;;23.88;6.30;;;17.20;77.40;;;;;;10413982;28;20049;-59
2023/11/03 18:01:42;;;;;;;20.83;4.75;;;17.10;77.80;;;;;;10413072;28;20030;-59
2023/11/03 18:06:43;;;;;;;18.10;3.85;;;17.10;77.30;;;;;;10417167;28;20030;-59
2023/11/03 18:11:44;;;;;;;14.13;4.03;;;16.90;77.20;;;;;;10418533;28;20033;-59
2023/11/03 18:16:45;;;;;;;15.45;3.53;;;16.90;77.30;;;;;;10415564;28;20554;-59
2023/11/03 18:21:46;;;;;;;12.77;3.75;;;16.80;77.30;;;;;;10417510;28;20121;-59
2023/11/03 18:26:47;;;;;;;12.50;3.28;;;16.80;77.40;;;;;;10419703;28;20048;-59
2023/11/03 18:31:48;;;;;;;18.55;4.90;;;16.70;77.40;;;;;;10424217;28;20463;-59
2023/11/03 18:36:50;;;;;;;11.65;3.28;;;16.70;77.50;;;;;;10418901;28;20056;-59
2023/11/03 18:41:50;;;;;;;12.57;2.65;;;16.70;77.40;;;;;;10412459;28;20065;-60
2023/11/03 18:46:51;;;;;;;12.20;3.47;;;16.70;77.50;;;;;;10420760;28;20047;-62
2023/11/03 18:51:52;;;;;;;11.82;3.15;;;16.80;77.30;;;;;;10420863;28;20035;-63
2023/11/03 18:56:53;;;;;;;9.30;2.70;;;16.80;77.10;;;;;;10417717;28;20099;-63
2023/11/03 19:01:53;;;;;;;8.77;2.63;;;16.80;76.80;;;;;;10413076;28;20072;-63
2023/11/03 19:06:54;;;;;;;11.85;3.67;;;16.90;76.40;;;;;;10413742;28;20025;-61
2023/11/03 19:11:55;;;;;;;5.30;2.20;;;16.90;76.10;;;;;;10413795;28;20036;-62
2023/11/03 19:16:55;;;;;;;9.85;2.50;;;17.00;75.90;;;;;;10415625;28;20492;-59
2023/11/03 19:21:58;;;;;;;11.57;3.70;;;17.10;75.50;;;;;;10411368;28;20640;-58
2023/11/03 19:26:59;;;;;;;11.45;2.50;;;17.10;75.60;;;;;;10404496;28;20038;-59
2023/11/03 19:32:02;;;;;;;7.43;2.25;;;17.10;75.50;;;;;;10414573;28;20041;-59
2023/11/03 19:37:04;;;;;;;12.18;2.78;;;17.10;75.80;;;;;;10411921;28;20041;-59
2023/11/03 19:42:05;;;;;;;11.20;3.30;;;17.00;76.30;;;;;;10412182;28;20029;-59
2023/11/03 19:47:05;;;;;;;7.03;2.67;;;16.90;77.30;;;;;;10411722;28;20025;-59
2023/11/03 19:52:06;;;;;;;9.40;3.13;;;16.80;77.70;;;;;;10412442;28;20488;-59
2023/11/03 19:57:07;;;;;;;9.73;2.65;;;16.80;78.10;;;;;;10409993;28;20029;-59
2023/11/03 20:02:08;;;;;;;6.57;2.83;;;16.80;77.10;;;;;;10411481;28;20034;-59
2023/11/03 20:07:09;;;;;;;5.80;1.80;;;16.90;76.80;;;;;;10411438;28;20022;-59
2023/11/03 20:12:09;;;;;;;7.22;1.88;;;16.80;76.70;;;;;;10412263;28;20080;-59
2023/11/03 20:17:10;;;;;;;5.03;2.00;;;16.80;76.80;;;;;;10410287;28;20060;-59
2023/11/03 20:22:11;;;;;;;5.03;1.50;;;16.80;76.80;;;;;;10411704;28;20484;-59
2023/11/03 20:27:12;;;;;;;8.07;3.47;;;16.70;76.90;;;;;;10411209;28;20377;-59
2023/11/03 20:32:13;;;;;;;6.35;1.75;;;16.70;76.90;;;;;;10424255;28;20073;-59
2023/11/03 20:37:14;;;;;;;4.43;1.98;;;16.70;76.90;;;;;;10410613;28;20021;-59
2023/11/03 20:42:14;;;;;;;5.47;1.45;;;16.60;76.90;;;;;;10411358;28;20033;-59
2023/11/03 20:47:15;;;;;;;8.45;1.60;;;16.60;77.00;;;;;;10410280;28;20029;-58
2023/11/03 20:52:16;;;;;;;6.00;1.40;;;16.50;76.90;;;;;;10410603;28;20212;-59
2023/11/03 20:57:17;;;;;;;4.32;1.40;;;16.60;77.00;;;;;;10410360;28;20121;-59
2023/11/03 21:02:18;;;;;;;4.35;1.63;;;16.50;77.00;;;;;;10409938;28;20037;-59
2023/11/03 21:07:20;;;;;;;6.07;2.40;;;16.50;77.00;;;;;;10409604;28;20030;-59
2023/11/03 21:12:21;;;;;;;5.72;1.90;;;16.50;77.10;;;;;;10410357;28;20029;-59
2023/11/03 21:17:22;;;;;;;5.30;1.33;;;16.40;77.10;;;;;;10409288;28;20386;-59
2023/11/03 21:22:23;;;;;;;7.80;1.45;;;16.40;77.10;;;;;;10408991;28;20037;-59
2023/11/03 21:27:24;;;;;;;4.35;1.23;;;16.40;77.20;;;;;;10409054;28;20029;-59
2023/11/03 21:32:25;;;;;;;2.47;0.98;;;16.40;77.20;;;;;;10392136;28;20425;-59
2023/11/03 21:37:26;;;;;;;2.55;1.33;;;16.40;77.10;;;;;;10408791;28;20037;-59
2023/11/03 21:42:26;;;;;;;3.58;1.50;;;16.30;77.20;;;;;;10409488;28;20493;-59
2023/11/03 21:47:27;;;;;;;4.72;1.45;;;16.30;77.10;;;;;;10407368;28;20040;-59
2023/11/03 21:52:28;;;;;;;2.47;1.02;;;16.30;77.10;;;;;;10409013;28;20080;-59
2023/11/03 21:57:29;;;;;;;9.82;2.42;;;16.30;77.10;;;;;;10408394;28;20033;-60
2023/11/03 22:02:31;;;;;;;3.05;1.63;;;16.30;77.00;;;;;;10408443;28;20029;-59
2023/11/03 22:07:32;;;;;;;2.95;1.40;;;16.20;77.00;;;;;;10408679;28;20037;-59
2023/11/03 22:12:33;;;;;;;2.70;0.90;;;16.20;76.90;;;;;;10407168;28;20037;-59
2023/11/03 22:17:34;;;;;;;3.92;1.25;;;16.20;76.90;;;;;;10408816;28;20381;-59
2023/11/03 22:22:37;;;;;;;3.75;1.50;;;16.20;76.80;;;;;;10408421;28;20038;-59
2023/11/03 22:27:37;;;;;;;3.25;1.10;;;16.20;76.90;;;;;;10407944;28;20429;-59
2023/11/03 22:32:38;;;;;;;2.70;0.88;;;16.20;76.90;;;;;;10423611;28;20053;-59
2023/11/03 22:37:39;;;;;;;4.47;0.98;;;16.20;76.80;;;;;;10415714;28;20034;-58
2023/11/03 22:42:39;;;;;;;3.45;1.33;;;16.20;76.80;;;;;;10415984;28;20026;-59
2023/11/03 22:47:41;;;;;;;2.67;1.38;;;16.20;76.80;;;;;;10413741;28;20026;-60
2023/11/03 22:52:42;;;;;;;3.33;1.27;;;16.20;76.90;;;;;;10415037;28;20029;-59
2023/11/03 22:57:43;;;;;;;3.10;1.13;;;16.20;77.00;;;;;;10414768;28;20044;-59
2023/11/03 23:02:44;;;;;;;4.10;1.33;;;16.10;77.00;;;;;;10414670;28;20032;-59
2023/11/03 23:07:44;;;;;;;2.08;0.63;;;16.10;77.00;;;;;;10414338;28;20361;-59
2023/11/03 23:12:45;;;;;;;2.65;1.15;;;16.10;76.90;;;;;;10414459;28;20026;-59
2023/11/03 23:17:46;;;;;;;3.47;1.17;;;16.10;77.00;;;;;;10413812;28;20029;-59
2023/11/03 23:22:47;;;;;;;3.90;1.30;;;16.10;76.90;;;;;;10414164;28;20480;-59
2023/11/03 23:27:47;;;;;;;1.65;0.73;;;16.10;76.80;;;;;;10413374;28;20033;-59
2023/11/03 23:32:48;;;;;;;1.10;0.70;;;16.10;76.80;;;;;;10425059;28;20431;-59
2023/11/03 23:37:50;;;;;;;1.70;1.02;;;16.10;77.00;;;;;;10413423;28;20049;-59
2023/11/03 23:42:50;;;;;;;2.53;0.90;;;16.10;76.90;;;;;;10412708;28;20048;-59
2023/11/03 23:47:51;;;;;;;2.03;0.82;;;16.10;76.90;;;;;;10412730;28;20034;-59
2023/11/03 23:52:52;;;;;;;1.98;0.73;;;16.00;76.90;;;;;;10412857;28;20021;-59
2023/11/03 23:57:53;;;;;;;1.10;0.57;;;16.00;76.90;;;;;;10412478;28;20035;-59
